• Join FlightAware (Why Join?)
  • Login
  • US Flag 
06:22PM EDT


 

Airport Tracker/Info


-or-


 

Live Flight TrackerFlight Track Log ✈ TAM3094 ✈ 06-Nov-2013 ✈ SBRJ / SDU - SBAR / AJU

Flight Track Log - Related Links

Times and Time Zones

All times are in EST time to prevent confusion due to time zone crossing. See the TAM3094 flight status page for this flight to view local times or setup timezone preferences in your user account.

Time Position Orientation Groundspeed Altitude Reporting Facility
EST Latitude Longitude Course Direction KTS MPH feet Rate Location/Type
07:02PM -22.9240 -43.1620 172° South 145 167 400  Level FlightAware
07:02PM -22.9360 -43.1490 135° Southeast 149 171 1,700 2,640 Climbing FlightAware
07:03PM -22.9460 -43.1340 126° Southeast 168 193 2,500 1,800 Climbing FlightAware
07:03PM -22.9640 -43.1100 129° Southeast 210 242 3,400 2,160 Climbing FlightAware
07:04PM -22.9840 -43.0900 137° Southeast 224 258 4,700 3,180 Climbing FlightAware
07:04PM -23.0050 -43.0680 136° Southeast 227 261 6,400 2,940 Climbing FlightAware
07:05PM -23.0250 -43.0480 137° Southeast 251 289 7,300 2,160 Climbing FlightAware
07:05PM -23.0460 -43.0210 130° Southeast 286 329 8,200 2,640 Climbing FlightAware
07:06PM -23.0410 -42.9710 84° East 295 339 10,000 2,400 Climbing FlightAware
07:06PM -22.9870 -42.9120 45° Northeast 339 390 11,800 2,280 Climbing FlightAware
07:07PM -22.9390 -42.8870 26° Northeast 337 388 13,300 2,700 Climbing FlightAware
07:08PM -22.8640 -42.8770 North 343 395 15,500 2,520 Climbing FlightAware
07:09PM -22.7730 -42.8650 North 351 404 17,800 1,860 Climbing FlightAware
07:10PM -22.6860 -42.8380 16° North 377 434 19,000 1,560 Climbing FlightAware
07:10PM -22.6180 -42.7920 32° Northeast 390 449 20,400 1,920 Climbing FlightAware
07:11PM -22.5540 -42.7500 31° Northeast 394 453 21,800 1,920 Climbing FlightAware
07:12PM -22.4910 -42.7080 32° Northeast 399 459 23,000 1,500 Climbing FlightAware
07:12PM -22.4280 -42.6670 31° Northeast 411 473 23,800 1,260 Climbing FlightAware
07:13PM -22.3700 -42.6280 32° Northeast 421 484 24,600 1,260 Climbing FlightAware
07:14PM -22.2730 -42.5640 31° Northeast 437 503 25,800 1,260 Climbing FlightAware
07:15PM -22.2170 -42.5270 31° Northeast 444 511 26,500 1,380 Climbing FlightAware
07:15PM -22.1600 -42.4900 31° Northeast 448 516 27,300 1,500 Climbing FlightAware
07:16PM -22.1020 -42.4510 32° Northeast 455 524 28,100 1,380 Climbing FlightAware
07:16PM -22.0060 -42.3880 31° Northeast 461 531 29,300 1,260 Climbing FlightAware
07:17PM -21.8940 -42.3150 31° Northeast 471 542 30,500 1,140 Climbing FlightAware
07:18PM -21.8350 -42.2760 32° Northeast 475 547 31,100 1,260 Climbing FlightAware
07:18PM -21.7810 -42.2400 32° Northeast 475 547 31,800 1,440 Climbing FlightAware
07:19PM -21.6880 -42.1800 31° Northeast 473 544 33,000 1,260 Climbing FlightAware
07:20PM -21.6300 -42.1420 31° Northeast 474 545 33,600 1,260 Climbing FlightAware
07:21PM -21.5230 -42.0720 31° Northeast 470 541 35,000 1,380 Climbing FlightAware
07:22PM -21.4100 -41.9980 31° Northeast 460 529 36,500 1,080 Climbing FlightAware
07:23PM -21.3270 -41.9440 31° Northeast 464 534 37,000 300 Climbing FlightAware
07:23PM -21.2350 -41.8850 31° Northeast 466 536 37,000  Level FlightAware
07:24PM -21.1690 -41.8420 31° Northeast 464 534 37,000  Level FlightAware
07:25PM -21.0790 -41.7840 31° Northeast 465 535 37,000  Level FlightAware
07:26PM -20.9890 -41.7250 31° Northeast 464 534 37,000  Level FlightAware
07:27PM -20.8780 -41.6540 31° Northeast 464 534 37,000  Level FlightAware
07:27PM -20.8300 -41.6230 31° Northeast 464 534 37,000  Level FlightAware
07:28PM -20.7260 -41.5560 31° Northeast 463 533 37,000  Level FlightAware
07:29PM -20.6360 -41.4980 31° Northeast 463 533 37,000  Level FlightAware
07:30PM -20.5550 -41.4460 31° Northeast 462 532 37,000  Level FlightAware
07:30PM -20.5120 -41.4180 31° Northeast 462 532 37,000  Level FlightAware
07:31PM -20.4470 -41.3780 30° Northeast 461 531 37,000  Level FlightAware
07:32PM -20.3880 -41.3440 28° Northeast 459 528 37,000  Level FlightAware
07:33PM -20.2730 -41.2770 29° Northeast 460 529 37,000  Level FlightAware
07:33PM -20.1740 -41.2180 29° Northeast 462 532 37,000  Level FlightAware
07:34PM -20.0860 -41.1660 29° Northeast 460 529 37,000  Level FlightAware
07:35PM -19.9870 -41.1070 29° Northeast 463 533 37,000  Level FlightAware
07:36PM -19.8880 -41.0500 28° Northeast 460 529 37,000  Level FlightAware
07:37PM -19.7950 -40.9950 29° Northeast 463 533 37,000  Level FlightAware
07:38PM -19.7130 -40.9480 28° Northeast 459 528 37,000  Level FlightAware
07:39PM -19.6140 -40.8900 29° Northeast 459 528 37,000  Level FlightAware
07:40PM -19.5200 -40.8350 29° Northeast 457 526 37,000  Level FlightAware
07:41PM -19.3180 -40.7190 28° Northeast 461 531 37,000  Level FlightAware
07:41PM -19.2360 -40.6720 28° Northeast 459 528 37,000  Level FlightAware
07:42PM -19.2110 -40.6580 28° Northeast 459 528 37,000  Level FlightAware
07:43PM -19.1140 -40.6030 28° Northeast 459 528 37,000  Level FlightAware
07:44PM -19.0570 -40.5690 29° Northeast 459 528 37,000  Level FlightAware
07:45PM -18.9300 -40.4960 29° Northeast 457 526 37,000  Level FlightAware
07:46PM -18.8320 -40.4390 29° Northeast 456 525 37,000  Level FlightAware
07:46PM -18.7850 -40.4120 29° Northeast 454 522 37,000  Level FlightAware
07:47PM -18.7280 -40.3800 28° Northeast 453 521 37,000  Level FlightAware
07:47PM -18.6800 -40.3520 29° Northeast 453 521 37,000  Level FlightAware
07:48PM -18.5800 -40.2960 28° Northeast 454 522 37,000  Level FlightAware
07:49PM -18.4840 -40.2420 28° Northeast 454 522 37,000  Level FlightAware
07:49PM -18.4450 -40.2190 29° Northeast 454 522 37,000  Level FlightAware
07:50PM -18.3490 -40.1660 28° Northeast 454 522 37,000  Level FlightAware
07:51PM -18.2540 -40.1130 28° Northeast 454 522 37,000  Level FlightAware
07:52PM -18.1780 -40.0700 28° Northeast 454 522 37,000  Level FlightAware
07:53PM -18.1030 -40.0280 28° Northeast 454 522 37,000  Level FlightAware
07:54PM -18.0270 -39.9860 28° Northeast 454 522 37,000  Level FlightAware
07:55PM -17.9690 -39.9530 28° Northeast 454 522 37,000  Level FlightAware
07:55PM -17.9150 -39.9230 28° Northeast 454 522 37,000  Level FlightAware
07:56PM -17.8740 -39.9000 28° Northeast 454 522 37,000  Level FlightAware
07:56PM -17.8170 -39.8680 28° Northeast 454 522 37,000  Level FlightAware
07:57PM -17.7610 -39.8370 28° Northeast 454 522 37,000  Level FlightAware
07:57PM -17.7230 -39.8160 28° Northeast 454 522 37,000  Level FlightAware
07:58PM -17.6660 -39.7840 28° Northeast 454 522 37,000  Level FlightAware
08:01PM -17.3886 -39.6676 22° Northeast  Level Estimated
08:02PM -17.2895 -39.6261 22° Northeast  Level Estimated
08:03PM -17.1905 -39.5846 22° Northeast  Level Estimated
08:04PM -17.0914 -39.5432 22° Northeast  Level Estimated
08:05PM -16.9922 -39.5019 22° Northeast  Level Estimated
08:06PM -16.8931 -39.4606 22° Northeast  Level Estimated
08:07PM -16.7940 -39.4193 22° Northeast  Level Estimated
08:08PM -16.6949 -39.3781 22° Northeast  Level Estimated
08:09PM -16.5957 -39.3369 22° Northeast  Level Estimated
08:10PM -16.4966 -39.2957 22° Northeast  Level Estimated
08:11PM -16.3974 -39.2546 22° Northeast  Level Estimated
08:12PM -16.2983 -39.2136 22° Northeast  Level Estimated
08:13PM -16.1991 -39.1726 22° Northeast  Level Estimated
08:14PM -16.0999 -39.1316 22° Northeast  Level Estimated
08:15PM -16.0007 -39.0906 22° Northeast  Level Estimated
08:16PM -15.9016 -39.0497 22° Northeast  Level Estimated
08:17PM -15.8024 -39.0089 22° Northeast  Level Estimated
08:18PM -15.7031 -38.9680 22° Northeast  Level Estimated
08:19PM -15.6039 -38.9273 22° Northeast  Level Estimated
08:19PM -14.9710 -38.2480 22° Northeast 472 543 37,000  Level FlightAware
08:20PM -14.8670 -38.1940 27° Northeast 472 543 37,000  Level FlightAware
08:21PM -14.7550 -38.1360 27° Northeast 470 541 37,000  Level FlightAware
08:21PM -14.7050 -38.1090 28° Northeast 469 540 37,000  Level FlightAware
08:22PM -14.6330 -38.0710 27° Northeast 469 540 37,000  Level FlightAware
08:23PM -14.5780 -38.0430 26° Northeast 470 541 37,000  Level FlightAware
08:23PM -14.5220 -38.0140 27° Northeast 469 540 37,000  Level FlightAware
08:24PM -14.4050 -37.9530 27° Northeast 470 541 37,000  Level FlightAware
08:25PM -14.3030 -37.9000 27° Northeast 473 544 37,000  Level FlightAware
08:26PM -14.1870 -37.8390 27° Northeast 474 545 37,000  Level FlightAware
08:27PM -14.0960 -37.7920 27° Northeast 474 545 37,000  Level FlightAware
08:28PM -13.9830 -37.7330 27° Northeast 472 543 37,000  Level FlightAware
08:28PM -13.9280 -37.7050 26° Northeast 470 541 37,000  Level FlightAware
08:29PM -13.8230 -37.6500 27° Northeast 469 540 37,000  Level FlightAware
08:30PM -13.7600 -37.6180 26° Northeast 467 537 37,000  Level FlightAware
08:30PM -13.6960 -37.5850 27° Northeast 467 537 37,000  Level FlightAware
08:31PM -13.6260 -37.5490 27° Northeast 467 537 37,000  Level FlightAware
08:31PM -13.5600 -37.5140 27° Northeast 467 537 37,000  Level FlightAware
08:32PM -13.5130 -37.4900 26° Northeast 468 539 37,000  Level FlightAware
08:33PM -13.3920 -37.4280 26° Northeast 468 539 37,000  Level FlightAware
08:34PM -13.2810 -37.3700 27° Northeast 469 540 37,000  Level FlightAware
08:35PM -13.1780 -37.3170 27° Northeast 469 540 37,000  Level FlightAware
08:35PM -13.1220 -37.2940 22° Northeast 466 536 37,000  Level FlightAware
08:36PM -13.0380 -37.2700 16° North 465 535 37,000 -120 Level FlightAware
08:36PM -12.9510 -37.2590 North 469 540 36,900 -1,500 Descending FlightAware
08:37PM -12.8380 -37.2610 359° North 471 542 34,700 -2,880 Descending FlightAware
08:38PM -12.7280 -37.2630 359° North 478 550 32,100 -2,880 Descending FlightAware
08:39PM -12.6050 -37.2640 360° North 467 537 29,700 -2,460 Descending FlightAware
08:40PM -12.4530 -37.2670 359° North 448 516 26,900 -2,340 Descending FlightAware
08:41PM -12.3260 -37.2690 359° North 431 496 24,500 -2,340 Descending FlightAware
08:42PM -12.2380 -37.2700 359° North 423 487 22,800 -2,280 Descending FlightAware
08:42PM -12.1760 -37.2720 358° North 416 479 21,600 -2,340 Descending FlightAware
08:43PM -12.1150 -37.2720 360° North 409 471 20,400 -2,220 Descending FlightAware
08:44PM -12.0150 -37.2740 359° North 394 453 18,500 -2,220 Descending FlightAware
08:45PM -11.9140 -37.2760 359° North 375 432 16,400 -2,160 Descending FlightAware
08:46PM -11.8400 -37.2770 359° North 362 417 14,900 -1,140 Descending FlightAware
08:46PM -11.7830 -37.2780 359° North 362 417 14,900 -1,980 Level FlightAware
08:47PM -11.7240 -37.2780 360° North 348 400 12,600 -2,820 Descending FlightAware
08:48PM -11.6360 -37.2800 359° North 339 390 10,900 -1,140 Descending FlightAware
08:49PM -11.5420 -37.2810 359° North 315 362 10,300 -420 Descending FlightAware
08:49PM -11.5120 -37.2820 358° North 315 362 10,300  Level FlightAware
08:50PM -11.4640 -37.2830 359° North 315 362 10,300  Level FlightAware
08:50PM -11.4340 -37.2830 360° North 315 362 10,300  Level FlightAware
08:53PM -11.2146 -37.1792 25° Northeast  Level Estimated
08:54PM -11.1178 -37.1335 25° Northeast  Level Estimated
08:55PM -11.0210 -37.0878 25° Northeast  Level Estimated
08:56PM -10.9840 -37.0703 25° Northeast  Level Estimated
08:57PM -10.9840 -37.0703 270° West  Level Estimated
08:58PM -10.9840 -37.0703 270° West  Level Estimated
08:59PM -10.9840 -37.0703 270° West  Level Estimated
09:00PM -10.9840 -37.0703 270° West  Level Estimated
09:01PM -10.9840 -37.0703 270° West  Level Estimated
09:02PM -10.9840 -37.0703 270° West  Level Estimated
09:03PM -10.9840 -37.0703 270° West  Level Estimated
09:04PM -10.9840 -37.0703 270° West  Level Estimated
09:05PM -10.9840 -37.0703 270° West  Level Estimated
09:06PM -10.9840 -37.0703 270° West  Level Estimated
09:07PM -10.9840 -37.0703 270° West  Level Estimated
09:08PM -10.9840 -37.0703 270° West  Level Estimated
09:09PM -10.9840 -37.0703 270° West  Level Estimated
09:10PM -10.9840 -37.0703 270° West  Level Estimated
09:11PM -10.9840 -37.0703 270° West  Level Estimated
09:12PM -10.9840 -37.0703 270° West  Level Estimated
09:13PM -10.9840 -37.0703 270° West  Level Estimated
09:14PM -10.9840 -37.0703 270° West  Level Estimated
09:15PM -10.9840 -37.0703 270° West  Level Estimated
09:16PM -10.9840 -37.0703 270° West  Level Estimated
09:17PM -10.9840 -37.0703 270° West  Level Estimated
09:18PM -10.9840 -37.0703 270° West  Level Estimated
09:19PM -10.9840 -37.0703 270° West  Level Estimated
09:20PM -10.9840 -37.0703 270° West  Level Estimated
09:21PM -10.9840 -37.0703 270° West  Level Estimated
09:22PM -10.9840 -37.0703 270° West  Level Estimated